createdAt,value
2022-09-14T00:00:32.843Z,97780.58
2022-09-14T00:03:28.976Z,97779.45
2022-09-14T00:06:06.750Z,97775.33
2022-09-14T00:08:39.048Z,97776.42
2022-09-14T00:11:13.923Z,97777.09
2022-09-14T00:13:48.694Z,97776.03
2022-09-14T00:16:23.827Z,97774.38
2022-09-14T00:18:59.571Z,97768.39
2022-09-14T00:21:37.861Z,97761.23
2022-09-14T00:24:11.183Z,97762.77
2022-09-14T00:26:43.678Z,97761.70
2022-09-14T00:29:17.161Z,97760.71
2022-09-14T00:31:51.142Z,97756.38
2022-09-14T00:34:24.878Z,97756.14
2022-09-14T00:36:57.734Z,97758.34
2022-09-14T00:39:29.710Z,97750.36
2022-09-14T00:42:03.857Z,97748.64
2022-09-14T00:45:18.202Z,97746.96
2022-09-14T00:47:58.251Z,97753.77
2022-09-14T00:50:31.761Z,97754.38
2022-09-14T00:53:05.561Z,97754.77
2022-09-14T00:55:38.021Z,97747.55
2022-09-14T00:58:10.761Z,97743.85
2022-09-14T01:00:45.257Z,97740.56
2022-09-14T01:03:20.834Z,97741.55
2022-09-14T01:06:06.404Z,97740.50
2022-09-14T01:09:05.327Z,97735.83
2022-09-14T01:11:51.801Z,97735.41
2022-09-14T01:14:31.326Z,97733.27
2022-09-14T01:17:11.885Z,97730.86
2022-09-14T01:20:22.312Z,97731.15
2022-09-14T01:23:06.511Z,97730.58
2022-09-14T01:25:51.332Z,97731.21
2022-09-14T01:28:30.692Z,97730.64
2022-09-14T01:31:04.986Z,97730.78
2022-09-14T01:33:41.525Z,97726.55
2022-09-14T01:36:16.422Z,97726.65
2022-09-14T01:38:50.439Z,97723.73
2022-09-14T01:41:30.693Z,97724.63
2022-09-14T01:44:04.710Z,97720.07
2022-09-14T01:46:43.066Z,97715.35
2022-09-14T01:49:20.044Z,97715.23
2022-09-14T01:51:56.334Z,97714.55
2022-09-14T01:54:34.755Z,97715.36
2022-09-14T01:57:19.013Z,97717.02
2022-09-14T01:59:56.191Z,97718.27
2022-09-14T02:02:32.611Z,97714.92
2022-09-14T02:05:11.983Z,97714.22
2022-09-14T02:07:46.936Z,97706.80
2022-09-14T02:10:20.238Z,97706.45
2022-09-14T02:12:53.760Z,97706.66
2022-09-14T02:15:31.293Z,97706.45
2022-09-14T02:18:03.919Z,97701.25
2022-09-14T02:20:40.087Z,97703.08
2022-09-14T02:23:16.395Z,97699.94
2022-09-14T02:25:50.484Z,97694.93
2022-09-14T02:28:25.101Z,97695.48
2022-09-14T02:31:11.513Z,97690.92
2022-09-14T02:34:06.158Z,97688.18
2022-09-14T02:36:50.214Z,97686.11
2022-09-14T02:39:33.338Z,97691.63
2022-09-14T02:42:16.845Z,97682.15
2022-09-14T02:44:57.168Z,97684.11
2022-09-14T02:47:36.033Z,97677.23
2022-09-14T02:50:14.100Z,97670.93
2022-09-14T02:52:52.894Z,97661.54
2022-09-14T02:55:26.970Z,97657.69
2022-09-14T02:58:08.667Z,97658.34
2022-09-14T03:00:47.230Z,97657.00
2022-09-14T03:03:22.980Z,97660.66
2022-09-14T03:05:57.069Z,97667.91
2022-09-14T03:08:30.347Z,97667.88
2022-09-14T03:11:10.118Z,97668.29
2022-09-14T03:13:43.308Z,97664.05
2022-09-14T03:16:17.489Z,97660.89
2022-09-14T03:18:51.561Z,97659.35
2022-09-14T03:21:24.346Z,97657.69
2022-09-14T03:23:57.986Z,97663.27
2022-09-14T03:26:32.029Z,97664.89
2022-09-14T03:29:04.818Z,97665.04
2022-09-14T03:31:37.642Z,97664.58
2022-09-14T03:34:11.972Z,97666.67
2022-09-14T03:36:43.931Z,97671.20
2022-09-14T03:39:16.660Z,97672.69
2022-09-14T03:41:50.507Z,97672.39
2022-09-14T03:44:22.903Z,97674.83
2022-09-14T03:46:55.209Z,97671.48
2022-09-14T03:49:29.188Z,97672.44
2022-09-14T03:52:03.938Z,97673.73
2022-09-14T03:54:39.177Z,97671.19
2022-09-14T03:57:11.810Z,97668.87
2022-09-14T03:59:45.478Z,97668.75
2022-09-14T04:02:17.901Z,97670.48
2022-09-14T04:04:50.073Z,97668.25
2022-09-14T04:07:22.184Z,97667.66
2022-09-14T04:09:54.120Z,97665.63
2022-09-14T04:12:26.667Z,97667.84
2022-09-14T04:14:58.718Z,97668.20
2022-09-14T04:17:30.947Z,97672.19
2022-09-14T04:20:03.107Z,97670.77
2022-09-14T04:22:36.708Z,97665.90
2022-09-14T04:25:09.985Z,97665.20
2022-09-14T04:27:41.893Z,97665.27
2022-09-14T04:30:15.702Z,97660.60
2022-09-14T04:32:48.051Z,97660.64
2022-09-14T04:35:20.576Z,97666.67
2022-09-14T04:37:52.741Z,97665.66
2022-09-14T04:40:25.040Z,97655.09
2022-09-14T04:42:56.960Z,97656.27
2022-09-14T04:45:29.130Z,97657.45
2022-09-14T04:48:01.043Z,97660.71
2022-09-14T04:50:34.702Z,97660.42
2022-09-14T04:53:06.836Z,97662.27
2022-09-14T04:55:39.258Z,97663.76
2022-09-14T04:58:11.329Z,97664.30
2022-09-14T05:00:43.442Z,97658.89
2022-09-14T05:03:15.771Z,97653.58
2022-09-14T05:05:48.444Z,97659.80
2022-09-14T05:08:20.737Z,97666.14
2022-09-14T05:10:55.670Z,97665.56
2022-09-14T05:13:28.242Z,97667.42
2022-09-14T05:16:07.728Z,97671.80
2022-09-14T05:18:40.018Z,97666.05
2022-09-14T05:21:13.708Z,97670.89
2022-09-14T05:23:46.398Z,97670.58
2022-09-14T05:26:18.314Z,97673.03
2022-09-14T05:28:55.213Z,97672.08
2022-09-14T05:31:29.320Z,97666.45
2022-09-14T05:34:03.193Z,97670.42
2022-09-14T05:36:36.846Z,97665.89
2022-09-14T05:39:09.930Z,97663.01
2022-09-14T05:41:41.866Z,97660.52
2022-09-14T05:44:15.075Z,97661.31
2022-09-14T05:46:47.234Z,97662.02
2022-09-14T05:49:19.300Z,97663.45
2022-09-14T05:51:51.755Z,97668.52
2022-09-14T05:54:23.959Z,97669.38
2022-09-14T05:56:56.020Z,97671.13
2022-09-14T05:59:31.826Z,97668.06
2022-09-14T06:02:04.153Z,97665.00
2022-09-14T06:04:36.492Z,97663.63
2022-09-14T06:07:18.435Z,97666.17
2022-09-14T06:09:51.294Z,97664.01
2022-09-14T06:12:23.467Z,97665.21
2022-09-14T06:14:55.366Z,97664.55
2022-09-14T06:17:27.598Z,97667.59
2022-09-14T06:20:04.038Z,97672.46
2022-09-14T06:22:37.040Z,97672.45
2022-09-14T06:25:11.533Z,97673.48
2022-09-14T06:27:43.535Z,97672.56
2022-09-14T06:30:17.012Z,97675.74
2022-09-14T06:32:49.172Z,97678.41
2022-09-14T06:35:21.176Z,97677.09
2022-09-14T06:37:53.255Z,97679.02
2022-09-14T06:40:27.154Z,97685.48
2022-09-14T06:43:03.051Z,97686.84
2022-09-14T06:45:36.854Z,97687.36
2022-09-14T06:48:08.971Z,97678.30
2022-09-14T06:50:41.292Z,97680.88
2022-09-14T06:53:13.438Z,97687.67
2022-09-14T06:55:46.414Z,97686.16
2022-09-14T06:58:21.712Z,97680.19
2022-09-14T07:00:54.595Z,97683.79
2022-09-14T07:03:28.097Z,97686.27
2022-09-14T07:06:09.006Z,97684.32
2022-09-14T07:08:42.949Z,97683.75
2022-09-14T07:11:17.853Z,97684.23
2022-09-14T07:13:50.710Z,97686.76
2022-09-14T07:16:26.596Z,97684.60
2022-09-14T07:19:05.988Z,97682.66
2022-09-14T07:21:38.215Z,97683.10
2022-09-14T07:24:14.877Z,97685.40
2022-09-14T07:26:47.188Z,97683.05
2022-09-14T07:29:23.158Z,97680.66
2022-09-14T07:31:57.126Z,97677.83
2022-09-14T07:34:31.300Z,97674.37
2022-09-14T07:37:04.492Z,97674.34
2022-09-14T07:39:36.775Z,97675.09
2022-09-14T07:42:09.421Z,97679.86
2022-09-14T07:44:42.068Z,97677.99
2022-09-14T07:47:16.471Z,97677.86
2022-09-14T07:49:49.200Z,97673.63
2022-09-14T07:52:21.808Z,97676.02
2022-09-14T07:54:56.285Z,97670.28
2022-09-14T07:57:52.314Z,97668.55
2022-09-14T08:00:22.043Z,97663.81
2022-09-14T08:02:58.816Z,97667.44
2022-09-14T08:05:31.701Z,97663.98
2022-09-14T08:08:05.676Z,97666.45
2022-09-14T08:10:39.720Z,97666.31
2022-09-14T08:13:13.937Z,97669.37
2022-09-14T08:15:46.453Z,97665.20
2022-09-14T08:18:20.834Z,97669.08
2022-09-14T08:20:54.793Z,97670.38
2022-09-14T08:23:29.777Z,97670.52
2022-09-14T08:26:07.498Z,97674.16
2022-09-14T08:28:40.224Z,97672.70
2022-09-14T08:31:15.862Z,97674.01
2022-09-14T08:33:51.557Z,97673.13
2022-09-14T08:36:24.942Z,97674.71
2022-09-14T08:38:57.020Z,97677.64
2022-09-14T08:41:32.329Z,97675.61
2022-09-14T08:44:13.872Z,97674.42
2022-09-14T08:46:51.692Z,97673.55
2022-09-14T08:49:32.402Z,97673.06
2022-09-14T08:52:06.825Z,97672.13
2022-09-14T08:54:42.695Z,97675.05
2022-09-14T08:57:19.950Z,97676.30
2022-09-14T09:00:01.079Z,97674.59
2022-09-14T09:02:52.150Z,97671.15
2022-09-14T09:05:39.540Z,97664.39
2022-09-14T09:08:19.008Z,97663.70
2022-09-14T09:10:56.059Z,97655.79
2022-09-14T09:13:30.624Z,97656.77
2022-09-14T09:16:04.391Z,97657.96
2022-09-14T09:18:42.856Z,97653.27
2022-09-14T09:21:20.045Z,97650.61
2022-09-14T09:23:54.782Z,97649.59
2022-09-14T09:26:31.686Z,97651.91
2022-09-14T09:29:08.884Z,97652.12
2022-09-14T09:31:44.549Z,97651.41
2022-09-14T09:34:18.434Z,97650.92
2022-09-14T09:36:51.480Z,97650.55
2022-09-14T09:39:26.032Z,97649.88
2022-09-14T09:42:05.281Z,97644.16
2022-09-14T09:45:01.810Z,97644.98
2022-09-14T09:47:41.036Z,97643.85
2022-09-14T09:50:22.412Z,97642.95
2022-09-14T09:52:58.196Z,97643.98
2022-09-14T09:55:37.704Z,97643.95
2022-09-14T10:01:22.212Z,97638.69
2022-09-14T10:04:11.316Z,97636.08
2022-09-14T10:06:48.396Z,97632.81
2022-09-14T10:09:24.522Z,97633.80
2022-09-14T10:12:04.317Z,97631.52
2022-09-14T10:14:40.751Z,97633.79
2022-09-14T10:17:20.067Z,97633.59
2022-09-14T10:19:53.056Z,97636.58
2022-09-14T10:22:32.872Z,97628.27
2022-09-14T10:25:27.914Z,97630.46
2022-09-14T10:28:04.886Z,97630.11
2022-09-14T10:30:40.896Z,97629.71
2022-09-14T10:33:16.281Z,97625.48
2022-09-14T10:35:58.588Z,97625.52
2022-09-14T10:38:36.472Z,97629.10
2022-09-14T10:41:21.258Z,97624.17
2022-09-14T10:44:23.530Z,97620.72
2022-09-14T10:47:10.373Z,97622.66
2022-09-14T10:49:56.729Z,97626.68
2022-09-14T10:52:38.412Z,97620.94
2022-09-14T10:55:37.101Z,97617.61
2022-09-14T10:58:24.789Z,97620.43
2022-09-14T11:01:05.389Z,97622.02
2022-09-14T11:03:47.386Z,97620.86
2022-09-14T11:06:30.690Z,97623.69
2022-09-14T11:09:10.839Z,97625.40
2022-09-14T11:11:50.597Z,97623.69
2022-09-14T11:14:39.578Z,97623.73
2022-09-14T11:17:56.523Z,97616.58
2022-09-14T11:20:34.713Z,97613.66
2022-09-14T11:23:18.854Z,97610.54
2022-09-14T11:25:56.162Z,97610.89
2022-09-14T11:28:30.794Z,97605.96
2022-09-14T11:31:13.715Z,97605.04
2022-09-14T11:33:53.548Z,97608.40
2022-09-14T11:36:30.690Z,97612.33
2022-09-14T11:39:16.407Z,97621.23
2022-09-14T11:41:53.700Z,97616.17
2022-09-14T11:44:28.424Z,97618.59
2022-09-14T11:47:05.304Z,97620.77
2022-09-14T11:49:52.615Z,97617.21
2022-09-14T11:52:27.245Z,97618.77
2022-09-14T11:55:02.942Z,97619.40
2022-09-14T11:57:36.171Z,97618.36
2022-09-14T12:00:43.294Z,97623.75
2022-09-14T12:03:20.414Z,97626.57
2022-09-14T12:05:54.692Z,97625.20
2022-09-14T12:08:41.823Z,97625.86
2022-09-14T12:11:34.783Z,97626.26
2022-09-14T12:14:30.483Z,97633.16
2022-09-14T12:17:38.754Z,97634.25
2022-09-14T12:20:38.445Z,97637.23
2022-09-14T12:23:25.831Z,97639.17
2022-09-14T12:26:01.995Z,97642.85
2022-09-14T12:28:48.517Z,97643.08
2022-09-14T12:31:40.676Z,97642.30
2022-09-14T12:34:21.523Z,97634.85
2022-09-14T12:37:27.004Z,97637.02
2022-09-14T12:40:33.840Z,97635.82
2022-09-14T12:43:46.982Z,97634.30
2022-09-14T12:46:51.015Z,97624.30
2022-09-14T12:49:46.875Z,97619.31
2022-09-14T12:52:35.044Z,97616.30
2022-09-14T12:55:31.125Z,97613.92
2022-09-14T12:58:09.055Z,97612.52
2022-09-14T13:00:56.564Z,97610.67
2022-09-14T13:03:52.719Z,97609.27
2022-09-14T13:06:26.604Z,97607.44
2022-09-14T13:09:06.314Z,97606.70
2022-09-14T13:11:44.082Z,97603.48
2022-09-14T13:14:39.814Z,97604.99
2022-09-14T13:17:15.920Z,97606.43
2022-09-14T13:19:57.286Z,97604.17
2022-09-14T13:22:33.582Z,97602.30
2022-09-14T13:25:06.894Z,97593.93
2022-09-14T13:27:40.615Z,97594.06
2022-09-14T13:30:23.968Z,97591.38
2022-09-14T13:32:59.935Z,97592.13
2022-09-14T13:35:36.295Z,97587.44
2022-09-14T13:38:17.947Z,97580.58
2022-09-14T13:40:55.798Z,97568.80
2022-09-14T13:43:29.024Z,97561.05
2022-09-14T13:46:03.119Z,97556.95
2022-09-14T13:48:40.389Z,97553.48
2022-09-14T13:51:15.264Z,97550.54
2022-09-14T13:53:50.691Z,97552.24
2022-09-14T13:56:26.706Z,97544.19
2022-09-14T13:59:25.297Z,97544.92
2022-09-14T14:02:00.999Z,97542.27
2022-09-14T14:04:36.384Z,97540.77
2022-09-14T14:07:22.361Z,97536.17
2022-09-14T14:09:57.084Z,97525.17
2022-09-14T14:12:32.139Z,97517.32
2022-09-14T14:15:06.899Z,97519.87
2022-09-14T14:17:41.240Z,97511.98
2022-09-14T14:20:45.391Z,97513.72
2022-09-14T14:23:22.708Z,97514.05
2022-09-14T14:25:56.279Z,97509.77
2022-09-14T14:28:30.631Z,97511.13
2022-09-14T14:31:08.541Z,97520.69
2022-09-14T14:33:48.359Z,97522.62
2022-09-14T14:36:23.387Z,97520.08
2022-09-14T14:38:59.781Z,97523.40
2022-09-14T14:41:33.135Z,97515.92
2022-09-14T14:44:07.317Z,97516.97
2022-09-14T14:46:40.745Z,97519.55
2022-09-14T14:49:17.167Z,97518.96
2022-09-14T14:51:51.668Z,97517.77
2022-09-14T14:54:29.067Z,97522.58
2022-09-14T14:57:04.213Z,97524.20
2022-09-14T14:59:41.544Z,97524.15
2022-09-14T15:02:15.402Z,97521.54
2022-09-14T15:04:50.658Z,97521.16
2022-09-14T15:07:23.349Z,97513.17
2022-09-14T15:10:03.173Z,97515.42
2022-09-14T15:12:37.155Z,97518.94
2022-09-14T15:15:18.714Z,97519.52
2022-09-14T15:17:52.014Z,97517.80
2022-09-14T15:20:25.243Z,97516.73
2022-09-14T15:23:00.365Z,97514.27
2022-09-14T15:25:32.821Z,97509.94
2022-09-14T15:28:06.978Z,97512.95
2022-09-14T15:30:40.920Z,97512.02
2022-09-14T15:33:15.414Z,97518.59
2022-09-14T15:35:47.685Z,97516.55
2022-09-14T15:38:20.050Z,97513.94
2022-09-14T15:40:53.420Z,97514.20
2022-09-14T15:43:25.554Z,97510.93
2022-09-14T15:46:04.286Z,97510.90
2022-09-14T15:48:38.368Z,97511.69
2022-09-14T15:51:12.963Z,97506.98
2022-09-14T15:53:47.373Z,97503.27
2022-09-14T15:56:21.446Z,97500.61
2022-09-14T15:58:53.602Z,97505.64
2022-09-14T16:01:25.961Z,97504.77
2022-09-14T16:04:05.753Z,97502.70
2022-09-14T16:06:42.455Z,97504.38
2022-09-14T16:09:17.610Z,97502.48
2022-09-14T16:11:49.855Z,97496.04
2022-09-14T16:14:28.171Z,97500.52
2022-09-14T16:17:03.142Z,97497.80
2022-09-14T16:19:35.903Z,97493.83
2022-09-14T16:22:10.547Z,97489.22
2022-09-14T16:24:46.520Z,97480.62
2022-09-14T16:27:21.931Z,97482.35
2022-09-14T16:29:56.111Z,97479.58
2022-09-14T16:32:30.448Z,97479.44
2022-09-14T16:35:08.107Z,97476.66
2022-09-14T16:37:41.785Z,97465.67
2022-09-14T16:40:16.430Z,97466.30
2022-09-14T16:42:49.836Z,97471.64
2022-09-14T16:45:23.190Z,97472.73
2022-09-14T16:47:56.473Z,97476.00
2022-09-14T16:50:30.084Z,97472.35
2022-09-14T16:53:03.597Z,97474.77
2022-09-14T16:55:38.132Z,97477.77
2022-09-14T16:58:11.049Z,97476.93
2022-09-14T17:00:44.430Z,97466.11
2022-09-14T17:03:18.607Z,97468.73
2022-09-14T17:05:52.072Z,97472.33
2022-09-14T17:08:25.512Z,97472.83
2022-09-14T17:10:59.023Z,97474.20
2022-09-14T17:13:34.063Z,97471.35
2022-09-14T17:16:14.000Z,97470.16
2022-09-14T17:18:49.782Z,97466.11
2022-09-14T17:21:24.149Z,97468.08
2022-09-14T17:23:57.197Z,97465.96
2022-09-14T17:26:30.738Z,97461.53
2022-09-14T17:29:04.403Z,97462.59
2022-09-14T17:31:39.644Z,97470.25
2022-09-14T17:34:16.199Z,97478.37
2022-09-14T17:36:50.467Z,97480.30
2022-09-14T17:39:24.485Z,97479.46
2022-09-14T17:41:57.589Z,97480.20
2022-09-14T17:44:32.897Z,97471.64
2022-09-14T17:47:07.798Z,97462.00
2022-09-14T17:49:42.381Z,97454.31
2022-09-14T17:52:18.274Z,97447.03
2022-09-14T17:54:51.469Z,97447.60
2022-09-14T17:57:24.132Z,97446.95
2022-09-14T17:59:57.862Z,97452.50
2022-09-14T18:02:34.268Z,97452.18
2022-09-14T18:05:09.557Z,97454.64
2022-09-14T18:07:42.837Z,97453.71
2022-09-14T18:10:18.023Z,97454.71
2022-09-14T18:12:53.289Z,97453.97
2022-09-14T18:15:26.763Z,97455.98
2022-09-14T18:18:00.080Z,97459.17
2022-09-14T18:20:36.560Z,97459.85
2022-09-14T18:23:10.127Z,97459.48
2022-09-14T18:25:45.812Z,97463.66
2022-09-14T18:28:18.498Z,97460.73
2022-09-14T18:30:51.673Z,97463.02
2022-09-14T18:33:26.232Z,97456.77
2022-09-14T18:35:58.965Z,97453.58
2022-09-14T18:38:33.509Z,97443.27
2022-09-14T18:41:12.306Z,97437.79
2022-09-14T18:43:48.265Z,97437.69
2022-09-14T18:46:27.083Z,97437.25
2022-09-14T18:49:03.775Z,97433.81
2022-09-14T18:51:37.573Z,97424.59
2022-09-14T18:54:12.543Z,97421.22
2022-09-14T18:56:46.320Z,97417.09
2022-09-14T18:59:20.185Z,97416.59
2022-09-14T19:01:53.759Z,97415.80
2022-09-14T19:04:27.060Z,97418.60
2022-09-14T19:07:01.386Z,97415.93
2022-09-14T19:09:36.173Z,97408.43
2022-09-14T19:12:10.705Z,97411.16
2022-09-14T19:14:46.516Z,97415.60
2022-09-14T19:17:20.645Z,97411.63
2022-09-14T19:19:54.050Z,97414.16
2022-09-14T19:22:29.312Z,97407.70
2022-09-14T19:25:02.289Z,97401.50
2022-09-14T19:27:36.088Z,97399.83
2022-09-14T19:30:13.062Z,97396.66
2022-09-14T19:32:47.825Z,97391.25
2022-09-14T19:35:20.812Z,97391.31
2022-09-14T19:37:55.521Z,97393.81
2022-09-14T19:40:28.835Z,97391.36
2022-09-14T19:43:03.551Z,97390.70
2022-09-14T19:45:39.002Z,97386.98
2022-09-14T19:48:12.851Z,97387.95
2022-09-14T19:50:46.260Z,97392.11
2022-09-14T19:53:19.612Z,97385.73
2022-09-14T19:55:54.124Z,97390.45
2022-09-14T19:58:29.112Z,97395.71
2022-09-14T20:01:03.238Z,97397.21
2022-09-14T20:03:39.349Z,97396.95
2022-09-14T20:06:19.357Z,97400.34
2022-09-14T20:08:53.941Z,97397.45
2022-09-14T20:11:27.491Z,97394.84
2022-09-14T20:14:02.631Z,97398.08
2022-09-14T20:16:42.087Z,97400.23
2022-09-14T20:19:24.152Z,97395.14
2022-09-14T20:21:57.699Z,97396.20
2022-09-14T20:24:32.606Z,97400.72
2022-09-14T20:27:05.081Z,97398.16
2022-09-14T20:29:37.786Z,97400.13
2022-09-14T20:32:12.299Z,97401.86
2022-09-14T20:35:09.399Z,97403.13
2022-09-14T20:37:48.488Z,97395.76
2022-09-14T20:40:24.051Z,97393.50
2022-09-14T20:43:28.665Z,97390.90
2022-09-14T20:46:05.675Z,97389.95
2022-09-14T20:49:06.802Z,97387.27
2022-09-14T20:52:08.749Z,97391.64
2022-09-14T20:58:10.621Z,97394.13
2022-09-14T21:00:47.448Z,97386.75
2022-09-14T21:03:23.167Z,97381.80
2022-09-14T21:06:26.689Z,97376.64
2022-09-14T21:09:34.754Z,97372.59
2022-09-14T21:12:35.601Z,97364.23
2022-09-14T21:15:15.290Z,97352.14
2022-09-14T21:17:50.923Z,97346.65
2022-09-14T21:20:30.675Z,97339.96
2022-09-14T21:23:09.022Z,97339.60
2022-09-14T21:25:46.082Z,97344.31
2022-09-14T21:28:19.106Z,97342.20
2022-09-14T21:30:51.956Z,97337.84
2022-09-14T21:33:24.161Z,97334.77
2022-09-14T21:35:56.654Z,97323.68
2022-09-14T21:38:32.286Z,97317.30
2022-09-14T21:41:08.719Z,97311.42
2022-09-14T21:43:42.941Z,97317.38
2022-09-14T21:46:15.285Z,97316.06
2022-09-14T21:48:51.424Z,97314.83
2022-09-14T21:51:26.617Z,97316.30
2022-09-14T21:54:00.597Z,97317.33
2022-09-14T21:56:35.118Z,97314.91
2022-09-14T21:59:10.096Z,97308.45
2022-09-14T22:01:44.252Z,97304.10
2022-09-14T22:04:18.814Z,97302.02
2022-09-14T22:06:53.862Z,97301.11
2022-09-14T22:09:28.334Z,97298.79
2022-09-14T22:12:03.333Z,97294.53
2022-09-14T22:14:36.365Z,97301.80
2022-09-14T22:17:09.693Z,97299.80
2022-09-14T22:19:43.467Z,97293.23
2022-09-14T22:22:16.005Z,97294.09
2022-09-14T22:24:48.759Z,97286.16
2022-09-14T22:27:21.366Z,97286.14
2022-09-14T22:29:53.657Z,97286.90
2022-09-14T22:32:31.575Z,97291.55
2022-09-14T22:35:08.721Z,97288.99
2022-09-14T22:37:40.563Z,97289.40
2022-09-14T22:40:13.800Z,97285.80
2022-09-14T22:42:48.556Z,97285.00
2022-09-14T22:45:22.822Z,97280.77
2022-09-14T22:47:58.290Z,97280.18
2022-09-14T22:50:33.413Z,97283.61
2022-09-14T22:53:05.198Z,97281.63
2022-09-14T22:55:40.311Z,97267.44
2022-09-14T22:58:14.192Z,97259.77
2022-09-14T23:00:48.540Z,97252.36
2022-09-14T23:03:23.221Z,97255.13
2022-09-14T23:05:58.109Z,97256.25
2022-09-14T23:08:37.047Z,97251.31
2022-09-14T23:11:12.348Z,97246.11
2022-09-14T23:13:45.035Z,97251.46
2022-09-14T23:16:20.260Z,97248.40
2022-09-14T23:19:00.867Z,97252.99
2022-09-14T23:21:33.943Z,97252.59
2022-09-14T23:24:08.770Z,97245.61
2022-09-14T23:26:42.264Z,97242.33
2022-09-14T23:29:18.098Z,97228.10
2022-09-14T23:31:51.072Z,97210.95
2022-09-14T23:34:26.751Z,97212.75
2022-09-14T23:37:03.460Z,97206.67
2022-09-14T23:39:35.795Z,97205.56
2022-09-14T23:42:08.484Z,97203.10
2022-09-14T23:44:41.885Z,97215.45
2022-09-14T23:47:15.581Z,97225.47
2022-09-14T23:49:48.069Z,97225.05
2022-09-14T23:52:21.692Z,97215.27
2022-09-14T23:54:56.791Z,97214.45
2022-09-14T23:57:29.897Z,97215.16
